createdAt,value
2022-12-22T00:00:09.049Z,100288.09
2022-12-22T00:03:05.687Z,100289.69
2022-12-22T00:05:57.673Z,100293.56
2022-12-22T00:08:48.257Z,100284.13
2022-12-22T00:11:38.813Z,100284.84
2022-12-22T00:14:30.991Z,100283.28
2022-12-22T00:17:21.634Z,100282.56
2022-12-22T00:20:18.124Z,100279.38
2022-12-22T00:23:08.897Z,100281.75
2022-12-22T00:25:59.672Z,100273.16
2022-12-22T00:28:51.197Z,100269.25
2022-12-22T00:31:43.123Z,100262.63
2022-12-22T00:34:36.302Z,100262.59
2022-12-22T00:37:30.273Z,100255.56
2022-12-22T00:40:20.793Z,100241.50
2022-12-22T00:43:11.458Z,100249.69
2022-12-22T00:46:02.037Z,100257.53
2022-12-22T00:48:55.234Z,100254.78
2022-12-22T00:51:46.293Z,100258.31
2022-12-22T00:54:38.347Z,100255.97
2022-12-22T00:57:35.033Z,100246.59
2022-12-22T01:00:33.113Z,100241.09
2022-12-22T01:03:23.760Z,100243.84
2022-12-22T01:06:19.123Z,100241.50
2022-12-22T01:09:09.999Z,100237.97
2022-12-22T01:12:00.472Z,100240.31
2022-12-22T01:14:50.933Z,100238.78
2022-12-22T01:17:41.388Z,100239.22
2022-12-22T01:20:32.078Z,100239.59
2022-12-22T01:23:28.938Z,100236.13
2022-12-22T01:26:19.124Z,100238.44
2022-12-22T01:29:09.608Z,100227.88
2022-12-22T01:32:00.377Z,100228.69
2022-12-22T01:34:50.619Z,100233.00
2022-12-22T01:37:41.077Z,100229.50
2022-12-22T01:40:36.555Z,100228.72
2022-12-22T01:43:37.765Z,100236.94
2022-12-22T01:46:43.303Z,100235.38
2022-12-22T01:49:37.627Z,100233.41
2022-12-22T01:52:30.740Z,100224.81
2022-12-22T01:55:26.318Z,100220.50
2022-12-22T01:58:18.280Z,100224.03
2022-12-22T02:01:08.870Z,100212.69
2022-12-22T02:03:59.345Z,100210.31
2022-12-22T02:06:59.751Z,100206.84
2022-12-22T02:10:02.515Z,100207.63
2022-12-22T02:13:00.751Z,100202.94
2022-12-22T02:15:58.961Z,100203.72
2022-12-22T02:18:56.622Z,100200.56
2022-12-22T02:21:53.498Z,100197.03
2022-12-22T02:24:53.161Z,100197.44
2022-12-22T02:27:46.927Z,100186.88
2022-12-22T02:30:37.655Z,100179.88
2022-12-22T02:33:28.264Z,100185.72
2022-12-22T02:36:24.800Z,100174.00
2022-12-22T02:39:22.689Z,100168.13
2022-12-22T02:42:28.615Z,100168.13
2022-12-22T02:45:30.407Z,100174.78
2022-12-22T02:48:26.216Z,100175.53
2022-12-22T02:51:23.800Z,100162.63
2022-12-22T02:54:15.598Z,100158.34
2022-12-22T02:57:06.680Z,100161.47
2022-12-22T02:59:57.196Z,100156.78
2022-12-22T03:02:49.184Z,100163.03
2022-12-22T03:05:39.798Z,100162.25
2022-12-22T03:08:30.489Z,100163.44
2022-12-22T03:11:21.205Z,100163.81
2022-12-22T03:14:11.387Z,100161.09
2022-12-22T03:17:02.307Z,100159.91
2022-12-22T03:19:54.203Z,100161.09
2022-12-22T03:22:44.706Z,100148.19
2022-12-22T03:25:35.219Z,100148.97
2022-12-22T03:28:09.758Z,100146.22
2022-12-22T03:30:42.691Z,100145.03
2022-12-22T03:33:15.526Z,100139.53
2022-12-22T03:35:49.873Z,100136.00
2022-12-22T03:38:22.862Z,100148.53
2022-12-22T03:40:56.102Z,100150.88
2022-12-22T03:43:46.637Z,100154.38
2022-12-22T03:46:31.671Z,100174.31
2022-12-22T03:49:12.527Z,100184.06
2022-12-22T03:51:48.912Z,100182.47
2022-12-22T03:54:23.734Z,100181.66
2022-12-22T03:56:56.690Z,100181.69
2022-12-22T03:59:29.555Z,100183.25
2022-12-22T04:02:02.417Z,100177.00
2022-12-22T04:04:35.328Z,100177.38
2022-12-22T04:07:09.799Z,100171.47
2022-12-22T04:10:03.168Z,100160.50
2022-12-22T04:12:53.755Z,100157.38
2022-12-22T04:15:29.537Z,100164.41
2022-12-22T04:18:02.640Z,100169.16
2022-12-22T04:20:35.985Z,100163.69
2022-12-22T04:23:10.288Z,100169.94
2022-12-22T04:25:43.526Z,100173.81
2022-12-22T04:28:16.689Z,100185.53
2022-12-22T04:30:50.805Z,100189.44
2022-12-22T04:33:23.583Z,100183.97
2022-12-22T04:35:56.393Z,100190.22
2022-12-22T04:38:30.642Z,100194.13
2022-12-22T04:41:04.094Z,100194.16
2022-12-22T04:43:37.590Z,100198.84
2022-12-22T04:46:10.589Z,100194.97
2022-12-22T04:48:43.707Z,100206.63
2022-12-22T04:51:16.727Z,100205.47
2022-12-22T04:53:50.716Z,100203.13
2022-12-22T04:56:23.693Z,100198.78
2022-12-22T04:58:56.279Z,100201.88
2022-12-22T05:01:29.472Z,100217.13
2022-12-22T05:04:02.491Z,100219.47
2022-12-22T05:06:35.257Z,100224.50
2022-12-22T05:09:12.849Z,100221.75
2022-12-22T05:11:45.706Z,100227.22
2022-12-22T05:14:18.616Z,100239.34
2022-12-22T05:16:51.805Z,100233.50
2022-12-22T05:19:29.178Z,100241.31
2022-12-22T05:22:03.614Z,100238.13
2022-12-22T05:24:37.787Z,100240.94
2022-12-22T05:27:12.298Z,100232.31
2022-12-22T05:29:45.183Z,100234.28
2022-12-22T05:32:17.880Z,100234.72
2022-12-22T05:34:50.869Z,100224.13
2022-12-22T05:37:23.656Z,100226.84
2022-12-22T05:39:58.045Z,100227.97
2022-12-22T05:42:36.979Z,100217.41
2022-12-22T05:45:14.993Z,100224.81
2022-12-22T05:47:50.558Z,100239.22
2022-12-22T05:50:26.135Z,100236.84
2022-12-22T05:53:09.949Z,100243.13
2022-12-22T05:55:44.284Z,100255.25
2022-12-22T05:58:17.245Z,100256.81
2022-12-22T06:00:49.921Z,100260.97
2022-12-22T06:03:22.960Z,100268.78
2022-12-22T06:05:56.642Z,100263.69
2022-12-22T06:08:29.584Z,100278.94
2022-12-22T06:11:03.779Z,100281.25
2022-12-22T06:13:37.413Z,100290.19
2022-12-22T06:16:10.407Z,100292.81
2022-12-22T06:18:43.446Z,100295.94
2022-12-22T06:21:16.446Z,100300.63
2022-12-22T06:23:49.243Z,100300.94
2022-12-22T06:26:23.574Z,100313.03
2022-12-22T06:28:56.539Z,100307.22
2022-12-22T06:31:29.388Z,100309.13
2022-12-22T06:34:04.392Z,100297.75
2022-12-22T06:36:41.667Z,100304.34
2022-12-22T06:39:15.020Z,100312.56
2022-12-22T06:42:06.595Z,100307.47
2022-12-22T06:44:39.483Z,100315.22
2022-12-22T06:47:12.723Z,100312.16
2022-12-22T06:49:45.700Z,100314.50
2022-12-22T06:52:18.552Z,100319.16
2022-12-22T06:54:51.446Z,100322.28
2022-12-22T06:57:26.040Z,100316.72
2022-12-22T06:59:58.950Z,100315.94
2022-12-22T07:02:32.139Z,100319.06
2022-12-22T07:05:05.657Z,100328.00
2022-12-22T07:07:38.471Z,100333.53
2022-12-22T07:10:12.305Z,100334.19
2022-12-22T07:12:46.375Z,100345.53
2022-12-22T07:15:19.705Z,100335.00
2022-12-22T07:17:54.307Z,100340.88
2022-12-22T07:20:27.205Z,100346.34
2022-12-22T07:22:59.932Z,100347.88
2022-12-22T07:25:32.760Z,100350.25
2022-12-22T07:28:07.948Z,100362.75
2022-12-22T07:30:41.305Z,100361.94
2022-12-22T07:33:18.508Z,100369.28
2022-12-22T07:36:03.923Z,100365.75
2022-12-22T07:38:39.719Z,100373.53
2022-12-22T07:41:33.084Z,100371.19
2022-12-22T07:44:10.625Z,100373.06
2022-12-22T07:46:44.129Z,100382.84
2022-12-22T07:49:35.057Z,100389.84
2022-12-22T07:52:08.401Z,100388.63
2022-12-22T07:54:42.447Z,100396.50
2022-12-22T07:57:16.121Z,100396.09
2022-12-22T07:59:50.853Z,100410.91
2022-12-22T08:02:26.224Z,100419.53
2022-12-22T08:05:01.297Z,100419.09
2022-12-22T08:07:34.347Z,100419.47
2022-12-22T08:10:07.515Z,100431.97
2022-12-22T08:12:40.712Z,100436.44
2022-12-22T08:15:15.056Z,100439.41
2022-12-22T08:17:48.341Z,100445.16
2022-12-22T08:20:21.726Z,100439.22
2022-12-22T08:22:54.828Z,100454.44
2022-12-22T08:25:27.557Z,100447.13
2022-12-22T08:28:01.023Z,100457.25
2022-12-22T08:30:35.883Z,100447.00
2022-12-22T08:33:09.171Z,100456.25
2022-12-22T08:35:42.603Z,100448.16
2022-12-22T08:38:16.219Z,100459.38
2022-12-22T08:40:50.179Z,100458.88
2022-12-22T08:43:25.014Z,100457.56
2022-12-22T08:45:59.518Z,100461.53
2022-12-22T08:48:33.684Z,100456.00
2022-12-22T08:51:07.484Z,100456.88
2022-12-22T08:54:04.495Z,100466.13
2022-12-22T08:56:33.442Z,100473.91
2022-12-22T08:59:08.193Z,100479.78
2022-12-22T09:01:44.663Z,100483.25
2022-12-22T09:04:20.022Z,100480.44
2022-12-22T09:06:54.166Z,100473.81
2022-12-22T09:09:27.471Z,100478.94
2022-12-22T09:12:00.725Z,100483.63
2022-12-22T09:14:34.127Z,100477.22
2022-12-22T09:17:08.717Z,100482.38
2022-12-22T09:19:41.652Z,100480.81
2022-12-22T09:22:15.065Z,100491.31
2022-12-22T09:24:48.343Z,100490.94
2022-12-22T09:27:22.005Z,100486.78
2022-12-22T09:29:55.922Z,100482.50
2022-12-22T09:32:31.271Z,100486.41
2022-12-22T09:35:05.591Z,100493.25
2022-12-22T09:37:40.879Z,100505.16
2022-12-22T09:40:15.256Z,100506.81
2022-12-22T09:42:49.549Z,100508.75
2022-12-22T09:45:22.686Z,100507.88
2022-12-22T09:47:57.107Z,100506.81
2022-12-22T09:50:40.433Z,100506.94
2022-12-22T09:53:21.230Z,100512.59
2022-12-22T09:55:54.728Z,100515.81
2022-12-22T09:58:29.718Z,100512.66
2022-12-22T10:01:18.317Z,100520.22
2022-12-22T10:04:01.223Z,100515.25
2022-12-22T10:06:43.367Z,100525.34
2022-12-22T10:09:48.064Z,100520.81
2022-12-22T10:12:17.361Z,100524.81
2022-12-22T10:14:52.435Z,100521.50
2022-12-22T10:17:29.531Z,100526.22
2022-12-22T10:20:22.593Z,100536.06
2022-12-22T10:22:58.945Z,100534.97
2022-12-22T10:26:08.800Z,100533.13
2022-12-22T10:28:31.510Z,100545.78
2022-12-22T10:31:13.734Z,100540.44
2022-12-22T10:33:50.057Z,100539.66
2022-12-22T10:36:27.298Z,100545.59
2022-12-22T10:39:03.441Z,100545.22
2022-12-22T10:41:38.223Z,100545.06
2022-12-22T10:44:20.055Z,100545.44
2022-12-22T10:46:55.101Z,100563.06
2022-12-22T10:49:30.168Z,100567.00
2022-12-22T10:52:16.061Z,100568.16
2022-12-22T10:54:49.183Z,100567.00
2022-12-22T10:57:28.793Z,100580.75
2022-12-22T11:00:03.939Z,100585.84
2022-12-22T11:02:38.879Z,100582.28
2022-12-22T11:05:12.898Z,100592.06
2022-12-22T11:07:48.216Z,100584.31
2022-12-22T11:10:51.840Z,100589.25
2022-12-22T11:13:43.273Z,100597.53
2022-12-22T11:16:22.852Z,100593.50
2022-12-22T11:19:14.580Z,100585.72
2022-12-22T11:21:57.503Z,100585.72
2022-12-22T11:24:40.692Z,100582.91
2022-12-22T11:27:32.120Z,100581.41
2022-12-22T11:30:11.196Z,100584.94
2022-12-22T11:33:11.780Z,100576.66
2022-12-22T11:35:58.637Z,100567.22
2022-12-22T11:38:47.504Z,100568.44
2022-12-22T11:41:35.900Z,100574.91
2022-12-22T11:44:41.460Z,100557.22
2022-12-22T11:47:27.235Z,100561.97
2022-12-22T11:50:58.632Z,100576.06
2022-12-22T11:54:02.871Z,100570.19
2022-12-22T11:56:45.606Z,100557.81
2022-12-22T11:59:51.008Z,100553.13
2022-12-22T12:02:53.925Z,100556.28
2022-12-22T12:05:53.066Z,100550.00
2022-12-22T12:08:35.116Z,100540.66
2022-12-22T12:11:33.907Z,100537.63
2022-12-22T12:14:18.793Z,100522.38
2022-12-22T12:16:59.873Z,100511.84
2022-12-22T12:19:54.143Z,100521.09
2022-12-22T12:22:40.184Z,100517.66
2022-12-22T12:25:38.003Z,100513.09
2022-12-22T12:28:30.917Z,100514.25
2022-12-22T12:31:14.961Z,100515.81
2022-12-22T12:33:54.100Z,100511.91
2022-12-22T12:36:35.034Z,100509.59
2022-12-22T12:39:15.701Z,100504.63
2022-12-22T12:41:57.285Z,100497.25
2022-12-22T12:44:35.302Z,100498.72
2022-12-22T12:47:24.196Z,100495.53
2022-12-22T12:50:27.389Z,100489.28
2022-12-22T12:53:10.571Z,100499.13
2022-12-22T12:56:16.682Z,100481.47
2022-12-22T12:58:52.991Z,100481.53
2022-12-22T13:02:00.525Z,100476.38
2022-12-22T13:05:13.216Z,100473.72
2022-12-22T13:08:12.129Z,100468.22
2022-12-22T13:10:48.626Z,100469.81
2022-12-22T13:13:47.053Z,100458.97
2022-12-22T13:16:41.317Z,100466.00
2022-12-22T13:19:26.662Z,100451.13
2022-12-22T13:22:03.814Z,100451.25
2022-12-22T13:27:39.497Z,100437.94
2022-12-22T13:30:15.551Z,100433.34
2022-12-22T13:30:51.269Z,100440.31
2022-12-22T13:32:53.798Z,100436.50
2022-12-22T13:35:38.618Z,100436.50
2022-12-22T13:38:31.694Z,100422.44
2022-12-22T13:41:21.404Z,100424.81
2022-12-22T13:44:01.586Z,100423.28
2022-12-22T13:46:36.455Z,100418.16
2022-12-22T13:49:30.172Z,100411.22
2022-12-22T13:52:14.939Z,100402.16
2022-12-22T13:54:50.953Z,100401.81
2022-12-22T13:57:26.440Z,100411.63
2022-12-22T13:59:59.996Z,100401.44
2022-12-22T14:02:35.016Z,100403.78
2022-12-22T14:05:12.003Z,100394.34
2022-12-22T14:08:03.431Z,100404.66
2022-12-22T14:10:40.977Z,100392.94
2022-12-22T14:13:19.285Z,100391.34
2022-12-22T14:16:02.776Z,100391.75
2022-12-22T14:18:37.038Z,100390.59
2022-12-22T14:21:11.707Z,100380.81
2022-12-22T14:23:49.045Z,100379.66
2022-12-22T14:26:28.565Z,100378.50
2022-12-22T14:29:04.090Z,100380.44
2022-12-22T14:31:53.182Z,100370.66
2022-12-22T14:34:30.304Z,100371.88
2022-12-22T14:37:03.892Z,100365.63
2022-12-22T14:39:42.093Z,100359.75
2022-12-22T14:42:19.004Z,100358.19
2022-12-22T14:44:55.191Z,100355.44
2022-12-22T14:47:30.841Z,100349.56
2022-12-22T14:50:16.732Z,100353.06
2022-12-22T14:53:01.964Z,100349.13
2022-12-22T14:55:42.973Z,100347.50
2022-12-22T14:58:32.550Z,100338.94
2022-12-22T15:01:27.311Z,100336.59
2022-12-22T15:04:12.841Z,100330.28
2022-12-22T15:06:56.131Z,100316.97
2022-12-22T15:10:14.258Z,100324.00
2022-12-22T15:12:48.619Z,100311.06
2022-12-22T15:15:26.047Z,100307.53
2022-12-22T15:18:03.380Z,100301.28
2022-12-22T15:20:44.505Z,100305.63
2022-12-22T15:23:19.206Z,100305.59
2022-12-22T15:25:56.549Z,100300.50
2022-12-22T15:28:33.928Z,100296.16
2022-12-22T15:31:20.666Z,100300.47
2022-12-22T15:37:06.652Z,100288.69
2022-12-22T15:39:49.249Z,100280.09
2022-12-22T15:42:23.290Z,100287.53
2022-12-22T15:44:57.583Z,100285.16
2022-12-22T15:47:33.199Z,100282.81
2022-12-22T15:50:18.585Z,100282.84
2022-12-22T15:53:08.883Z,100275.78
2022-12-22T15:55:47.186Z,100266.78
2022-12-22T15:58:33.385Z,100263.66
2022-12-22T16:01:12.215Z,100260.53
2022-12-22T16:03:50.257Z,100261.66
2022-12-22T16:06:28.195Z,100259.75
2022-12-22T16:12:10.577Z,100248.03
2022-12-22T16:14:50.838Z,100238.63
2022-12-22T16:17:26.171Z,100242.63
2022-12-22T16:20:00.577Z,100238.63
2022-12-22T16:22:40.211Z,100245.31
2022-12-22T16:25:17.622Z,100237.13
2022-12-22T16:28:00.414Z,100235.19
2022-12-22T16:30:37.127Z,100228.53
2022-12-22T16:33:15.834Z,100225.41
2022-12-22T16:35:51.580Z,100224.63
2022-12-22T16:38:26.263Z,100218.38
2022-12-22T16:40:59.588Z,100211.38
2022-12-22T16:47:03.425Z,100204.31
2022-12-22T16:49:41.632Z,100184.00
2022-12-22T16:52:20.041Z,100198.09
2022-12-22T16:54:55.745Z,100192.63
2022-12-22T16:57:29.269Z,100184.00
2022-12-22T17:00:02.840Z,100187.16
2022-12-22T17:02:40.447Z,100180.91
2022-12-22T17:05:43.800Z,100178.59
2022-12-22T17:08:23.483Z,100186.47
2022-12-22T17:11:08.043Z,100182.16
2022-12-22T17:13:46.315Z,100181.31
2022-12-22T17:16:25.974Z,100177.81
2022-12-22T17:19:01.816Z,100186.03
2022-12-22T17:21:35.567Z,100181.78
2022-12-22T17:24:16.658Z,100181.78
2022-12-22T17:26:52.785Z,100170.81
2022-12-22T17:29:32.156Z,100168.06
2022-12-22T17:32:06.403Z,100168.47
2022-12-22T17:34:44.984Z,100177.03
2022-12-22T17:37:25.737Z,100173.94
2022-12-22T17:40:05.760Z,100159.09
2022-12-22T17:42:43.621Z,100164.94
2022-12-22T17:45:23.766Z,100159.09
2022-12-22T17:47:59.956Z,100163.81
2022-12-22T17:50:36.553Z,100158.34
2022-12-22T17:53:23.191Z,100151.28
2022-12-22T17:56:09.531Z,100159.91
2022-12-22T17:58:47.911Z,100160.31
2022-12-22T18:01:30.277Z,100160.69
2022-12-22T18:04:04.039Z,100156.44
2022-12-22T18:06:45.185Z,100162.31
2022-12-22T18:09:31.866Z,100167.44
2022-12-22T18:12:16.277Z,100159.56
2022-12-22T18:14:57.660Z,100156.09
2022-12-22T18:17:36.225Z,100158.44
2022-12-22T18:20:22.399Z,100153.00
2022-12-22T18:23:02.421Z,100155.31
2022-12-22T18:25:45.509Z,100156.91
2022-12-22T18:28:19.783Z,100156.88
2022-12-22T18:30:56.183Z,100150.25
2022-12-22T18:33:34.023Z,100146.66
2022-12-22T18:36:12.618Z,100149.41
2022-12-22T18:38:54.394Z,100141.19
2022-12-22T18:41:35.117Z,100155.31
2022-12-22T18:44:26.088Z,100160.78
2022-12-22T18:47:03.778Z,100155.72
2022-12-22T18:49:38.641Z,100156.91
2022-12-22T18:52:22.459Z,100150.66
2022-12-22T18:55:18.667Z,100146.72
2022-12-22T18:57:56.969Z,100149.88
2022-12-22T19:00:37.751Z,100160.47
2022-12-22T19:03:22.356Z,100158.50
2022-12-22T19:06:00.165Z,100152.25
2022-12-22T19:08:37.857Z,100155.38
2022-12-22T19:11:34.981Z,100151.06
2022-12-22T19:14:20.119Z,100151.06
2022-12-22T19:17:01.519Z,100158.50
2022-12-22T19:19:39.354Z,100160.84
2022-12-22T19:22:18.794Z,100155.38
2022-12-22T19:24:58.789Z,100151.47
2022-12-22T19:27:38.367Z,100150.28
2022-12-22T19:30:24.834Z,100142.47
2022-12-22T19:33:03.014Z,100160.47
2022-12-22T19:35:44.032Z,100167.13
2022-12-22T19:38:27.660Z,100159.69
2022-12-22T19:41:07.479Z,100163.22
2022-12-22T19:43:43.126Z,100170.28
2022-12-22T19:46:19.939Z,100160.84
2022-12-22T19:48:53.462Z,100158.50
2022-12-22T19:51:29.038Z,100164.81
2022-12-22T19:54:03.051Z,100162.47
2022-12-22T19:56:40.392Z,100159.72
2022-12-22T19:59:27.286Z,100163.22
2022-12-22T20:02:24.831Z,100169.50
2022-12-22T20:05:01.401Z,100166.34
2022-12-22T20:07:46.251Z,100162.44
2022-12-22T20:10:21.684Z,100164.00
2022-12-22T20:13:00.423Z,100160.09
2022-12-22T20:15:40.713Z,100155.78
2022-12-22T20:18:19.622Z,100147.56
2022-12-22T20:21:03.722Z,100148.38
2022-12-22T20:23:45.663Z,100145.63
2022-12-22T20:26:25.113Z,100153.03
2022-12-22T20:29:01.829Z,100148.38
2022-12-22T20:31:37.946Z,100149.91
2022-12-22T20:34:14.490Z,100146.41
2022-12-22T20:36:50.420Z,100152.28
2022-12-22T20:39:25.346Z,100154.63
2022-12-22T20:42:01.382Z,100150.69
2022-12-22T20:44:34.979Z,100155.03
2022-12-22T20:47:30.420Z,100148.75
2022-12-22T20:50:04.267Z,100153.06
2022-12-22T20:52:38.109Z,100153.88
2022-12-22T20:55:41.603Z,100159.34
2022-12-22T20:58:41.889Z,100159.34
2022-12-22T21:01:17.285Z,100155.44
2022-12-22T21:03:52.161Z,100153.84
2022-12-22T21:06:30.566Z,100158.16
2022-12-22T21:09:08.947Z,100156.63
2022-12-22T21:11:50.441Z,100164.84
2022-12-22T21:14:28.366Z,100163.28
2022-12-22T21:17:16.193Z,100163.69
2022-12-22T21:20:02.568Z,100168.41
2022-12-22T21:23:04.398Z,100162.50
2022-12-22T21:25:49.626Z,100164.44
2022-12-22T21:28:35.108Z,100173.44
2022-12-22T21:31:11.966Z,100177.00
2022-12-22T21:33:45.617Z,100168.41
2022-12-22T21:36:24.563Z,100171.53
2022-12-22T21:39:00.475Z,100164.47
2022-12-22T21:41:51.150Z,100166.44
2022-12-22T21:44:25.957Z,100173.44
2022-12-22T21:47:00.432Z,100169.53
2022-12-22T21:49:34.680Z,100185.97
2022-12-22T21:52:09.354Z,100176.63
2022-12-22T21:54:42.686Z,100182.88
2022-12-22T21:57:17.073Z,100192.63
2022-12-22T21:59:52.190Z,100199.28
2022-12-22T22:02:27.814Z,100191.47
2022-12-22T22:05:01.562Z,100204.38
2022-12-22T22:07:35.190Z,100204.03
2022-12-22T22:10:18.403Z,100207.50
2022-12-22T22:12:52.177Z,100204.38
2022-12-22T22:15:28.635Z,100207.91
2022-12-22T22:18:06.974Z,100205.59
2022-12-22T22:20:42.759Z,100210.69
2022-12-22T22:23:16.643Z,100219.69
2022-12-22T22:25:58.013Z,100209.50
2022-12-22T22:28:31.839Z,100220.47
2022-12-22T22:31:11.964Z,100222.81
2022-12-22T22:33:54.599Z,100223.63
2022-12-22T22:36:28.775Z,100224.38
2022-12-22T22:39:01.903Z,100229.09
2022-12-22T22:41:43.145Z,100215.78
2022-12-22T22:44:16.860Z,100227.91
2022-12-22T22:46:51.442Z,100226.72
2022-12-22T22:49:28.687Z,100211.06
2022-12-22T22:52:02.308Z,100213.03
2022-12-22T22:54:36.746Z,100214.19
2022-12-22T22:57:09.947Z,100224.38
2022-12-22T22:59:43.505Z,100224.38
2022-12-22T23:02:18.461Z,100218.50
2022-12-22T23:04:51.736Z,100219.69
2022-12-22T23:07:24.893Z,100224.00
2022-12-22T23:09:58.185Z,100223.59
2022-12-22T23:12:31.312Z,100215.78
2022-12-22T23:15:05.169Z,100218.53
2022-12-22T23:17:39.556Z,100222.81
2022-12-22T23:20:12.909Z,100229.91
2022-12-22T23:22:46.159Z,100233.00
2022-12-22T23:25:20.494Z,100236.13
2022-12-22T23:27:55.184Z,100234.16
2022-12-22T23:30:28.586Z,100245.56
2022-12-22T23:33:03.156Z,100241.97
2022-12-22T23:35:37.610Z,100245.88
2022-12-22T23:38:11.671Z,100247.88
2022-12-22T23:40:54.030Z,100258.06
2022-12-22T23:43:27.714Z,100257.34
2022-12-22T23:46:00.848Z,100259.72
2022-12-22T23:48:37.427Z,100250.97
2022-12-22T23:51:12.106Z,100266.22
2022-12-22T23:53:44.977Z,100266.63
2022-12-22T23:56:17.949Z,100273.69
2022-12-22T23:58:54.500Z,100275.28
